createdAt,value
2019-03-31T00:04:06.365Z,17.70
2019-03-31T00:09:01.026Z,14.10
2019-03-31T00:13:56.395Z,16.07
2019-03-31T00:18:50.982Z,14.83
2019-03-31T00:23:45.555Z,14.33
2019-03-31T00:28:40.247Z,18.93
2019-03-31T00:33:34.895Z,18.70
2019-03-31T00:38:29.498Z,16.00
2019-03-31T00:43:24.075Z,17.77
2019-03-31T00:48:18.673Z,18.43
2019-03-31T00:53:13.246Z,17.60
2019-03-31T00:58:07.856Z,16.90
2019-03-31T01:03:02.434Z,15.50
2019-03-31T01:07:57.263Z,15.90
2019-03-31T01:12:52.352Z,13.57
2019-03-31T01:17:47.619Z,16.87
2019-03-31T01:22:42.282Z,17.40
2019-03-31T01:27:37.582Z,16.90
2019-03-31T01:32:32.305Z,20.13
2019-03-31T01:37:27.614Z,15.40
2019-03-31T01:42:22.327Z,16.57
2019-03-31T01:47:16.991Z,18.47
2019-03-31T01:52:11.905Z,15.63
2019-03-31T01:57:06.752Z,22.70
2019-03-31T02:02:04.459Z,17.73
2019-03-31T02:06:57.948Z,14.60
2019-03-31T02:11:52.513Z,17.00
2019-03-31T02:16:47.124Z,17.43
2019-03-31T02:21:41.687Z,17.00
2019-03-31T02:26:36.306Z,17.90
2019-03-31T02:31:30.955Z,17.83
2019-03-31T02:36:25.855Z,16.37
2019-03-31T02:41:20.452Z,18.50
2019-03-31T02:46:15.584Z,15.83
2019-03-31T02:51:10.339Z,16.23
2019-03-31T02:56:06.302Z,18.63
2019-03-31T03:01:01.188Z,18.97
2019-03-31T03:05:59.542Z,17.27
2019-03-31T03:10:54.629Z,18.13
2019-03-31T03:16:08.903Z,20.73
2019-03-31T03:21:03.451Z,16.63
2019-03-31T03:25:58.470Z,14.90
2019-03-31T03:30:53.120Z,16.33
2019-03-31T03:35:47.927Z,17.53
2019-03-31T03:40:42.522Z,16.07
2019-03-31T03:45:37.308Z,14.03
2019-03-31T03:50:31.913Z,18.03
2019-03-31T03:55:26.556Z,16.73
2019-03-31T04:00:21.141Z,20.50
2019-03-31T04:05:15.742Z,19.03
2019-03-31T04:10:43.374Z,17.87
2019-03-31T04:15:38.029Z,15.40
2019-03-31T04:20:32.623Z,17.33
2019-03-31T04:25:27.197Z,16.13
2019-03-31T04:30:21.783Z,15.43
2019-03-31T04:35:16.381Z,18.30
2019-03-31T04:40:10.956Z,15.23
2019-03-31T04:45:07.280Z,15.30
2019-03-31T04:50:01.941Z,14.93
2019-03-31T04:54:56.519Z,20.00
2019-03-31T04:59:51.106Z,15.40
2019-03-31T05:04:45.685Z,15.87
2019-03-31T05:09:40.289Z,14.67
2019-03-31T05:14:34.879Z,17.53
2019-03-31T05:19:29.439Z,20.40
2019-03-31T05:24:24.035Z,15.00
2019-03-31T05:29:18.719Z,15.93
2019-03-31T05:34:19.208Z,14.70
2019-03-31T05:39:09.617Z,20.70
2019-03-31T05:44:05.999Z,15.23
2019-03-31T05:49:00.794Z,12.70
2019-03-31T05:53:55.366Z,16.77
2019-03-31T05:58:49.959Z,13.43
2019-03-31T06:03:44.528Z,17.23
2019-03-31T06:08:39.145Z,19.37
2019-03-31T06:13:33.833Z,14.60
2019-03-31T06:18:28.433Z,14.60
2019-03-31T06:23:23.015Z,14.80
2019-03-31T06:28:17.684Z,14.63
2019-03-31T06:33:12.273Z,14.90
2019-03-31T06:38:19.152Z,16.47
2019-03-31T06:43:13.742Z,16.93
2019-03-31T06:48:08.426Z,15.93
2019-03-31T06:53:03.011Z,14.80
2019-03-31T06:57:57.605Z,15.33
2019-03-31T07:02:52.188Z,18.17
2019-03-31T07:07:46.798Z,16.60
2019-03-31T07:12:41.377Z,17.23
2019-03-31T07:17:35.978Z,18.63
2019-03-31T07:22:30.567Z,17.97
2019-03-31T07:27:25.177Z,17.97
2019-03-31T07:32:19.767Z,21.03
2019-03-31T07:37:14.367Z,18.77
2019-03-31T07:42:10.125Z,20.37
2019-03-31T07:47:04.928Z,18.90
2019-03-31T07:51:59.510Z,18.60
2019-03-31T07:56:54.105Z,20.47
2019-03-31T08:01:48.689Z,21.37
2019-03-31T08:06:43.325Z,19.07
2019-03-31T08:11:37.906Z,18.97
2019-03-31T08:16:32.581Z,20.93
2019-03-31T08:21:27.166Z,18.27
2019-03-31T08:26:21.793Z,22.97
2019-03-31T08:31:16.370Z,19.97
2019-03-31T08:36:10.982Z,19.27
2019-03-31T08:41:05.628Z,19.60
2019-03-31T08:46:01.002Z,18.90
2019-03-31T08:50:55.583Z,20.30
2019-03-31T08:55:50.190Z,19.43
2019-03-31T09:00:49.088Z,21.80
2019-03-31T09:05:43.705Z,23.37
2019-03-31T09:10:38.287Z,23.93
2019-03-31T09:15:32.899Z,27.27
2019-03-31T09:20:27.486Z,23.07
2019-03-31T09:25:22.088Z,25.87
2019-03-31T09:30:18.381Z,21.20
2019-03-31T09:35:13.179Z,23.60
2019-03-31T09:40:10.389Z,20.50
2019-03-31T09:45:07.520Z,23.50
2019-03-31T09:50:02.105Z,22.40
2019-03-31T09:54:56.712Z,23.10
2019-03-31T09:59:51.296Z,22.10
2019-03-31T10:04:45.908Z,21.27
2019-03-31T10:09:40.963Z,21.17
2019-03-31T10:14:35.548Z,20.47
2019-03-31T10:19:30.170Z,23.80
2019-03-31T10:24:24.758Z,21.97
2019-03-31T10:29:19.411Z,24.73
2019-03-31T10:34:14.004Z,21.43
2019-03-31T10:39:09.695Z,24.20
2019-03-31T10:44:04.608Z,22.40
2019-03-31T10:48:59.189Z,24.70
2019-03-31T10:53:53.779Z,22.13
2019-03-31T10:58:48.370Z,22.57
2019-03-31T11:03:42.970Z,21.93
2019-03-31T11:08:37.564Z,22.87
2019-03-31T11:13:32.159Z,25.77
2019-03-31T11:18:26.745Z,26.47
2019-03-31T11:23:23.004Z,21.20
2019-03-31T11:28:17.674Z,25.87
2019-03-31T11:33:12.277Z,23.17
2019-03-31T11:38:06.858Z,23.20
2019-03-31T11:43:01.442Z,23.60
2019-03-31T11:47:56.041Z,23.90
2019-03-31T11:52:50.631Z,24.67
2019-03-31T11:57:46.049Z,24.60
2019-03-31T12:02:40.648Z,22.47
2019-03-31T12:07:46.061Z,23.53
2019-03-31T12:12:31.556Z,24.77
2019-03-31T12:17:26.131Z,25.13
2019-03-31T12:22:20.737Z,23.30
2019-03-31T12:27:15.331Z,24.23
2019-03-31T12:32:09.930Z,26.53
2019-03-31T12:37:04.575Z,21.17
2019-03-31T12:41:59.174Z,25.37
2019-03-31T12:46:56.152Z,24.10
2019-03-31T12:51:50.075Z,17.17
2019-03-31T12:56:44.662Z,19.60
2019-03-31T13:01:39.252Z,26.70
2019-03-31T13:06:33.824Z,21.60
2019-03-31T13:11:28.447Z,19.63
2019-03-31T13:16:23.004Z,20.43
2019-03-31T13:21:17.620Z,20.93
2019-03-31T13:26:12.198Z,14.23
2019-03-31T13:31:06.798Z,14.63
2019-03-31T13:36:01.377Z,16.93
2019-03-31T13:40:55.992Z,17.27
2019-03-31T13:45:50.564Z,14.90
2019-03-31T13:50:45.159Z,15.10
2019-03-31T13:55:39.729Z,15.87
2019-03-31T14:00:38.370Z,15.47
2019-03-31T14:05:33.046Z,14.60
2019-03-31T14:10:27.646Z,13.63
2019-03-31T14:15:22.233Z,13.43
2019-03-31T14:20:16.891Z,13.97
2019-03-31T14:25:11.605Z,11.17
2019-03-31T14:30:09.412Z,12.83
2019-03-31T14:35:04.941Z,12.60
2019-03-31T14:39:59.553Z,10.53
2019-03-31T14:44:54.217Z,10.37
2019-03-31T14:49:48.807Z,10.60
2019-03-31T14:54:43.385Z,13.33
2019-03-31T14:59:37.976Z,12.73
2019-03-31T15:04:32.540Z,11.83
2019-03-31T15:09:27.140Z,13.20
2019-03-31T15:14:21.725Z,13.23
2019-03-31T15:19:16.326Z,11.43
2019-03-31T15:24:10.904Z,9.70
2019-03-31T15:29:05.768Z,10.13
2019-03-31T15:34:00.408Z,10.43
2019-03-31T15:39:08.152Z,13.07
2019-03-31T15:43:51.342Z,9.30
2019-03-31T15:48:45.946Z,9.77
2019-03-31T15:53:40.536Z,11.13
2019-03-31T15:58:35.134Z,10.07
2019-03-31T16:03:29.751Z,9.87
2019-03-31T16:08:24.307Z,10.53
2019-03-31T16:13:19.068Z,10.83
2019-03-31T16:18:13.665Z,8.07
2019-03-31T16:23:08.244Z,8.60
2019-03-31T16:28:02.835Z,9.57
2019-03-31T16:32:57.413Z,9.63
2019-03-31T16:37:52.094Z,10.63
2019-03-31T16:42:46.693Z,7.57
2019-03-31T16:47:41.316Z,8.97
2019-03-31T16:52:35.918Z,9.90
2019-03-31T16:57:30.537Z,9.33
2019-03-31T17:02:25.110Z,7.70
2019-03-31T17:07:19.704Z,10.13
2019-03-31T17:12:14.355Z,9.83
2019-03-31T17:17:08.989Z,9.80
2019-03-31T17:22:03.571Z,9.77
2019-03-31T17:26:58.155Z,11.80
2019-03-31T17:31:52.727Z,10.47
2019-03-31T17:36:47.324Z,10.17
2019-03-31T17:41:41.906Z,9.13
2019-03-31T17:46:36.484Z,7.60
2019-03-31T17:51:31.065Z,8.80
2019-03-31T17:56:25.666Z,10.83
2019-03-31T18:01:20.247Z,8.97
2019-03-31T18:06:14.856Z,9.50
2019-03-31T18:11:09.439Z,12.70
2019-03-31T18:16:04.255Z,10.23
2019-03-31T18:21:00.131Z,13.07
2019-03-31T18:25:54.727Z,13.03
2019-03-31T18:30:49.303Z,11.50
2019-03-31T18:35:43.915Z,11.33
2019-03-31T18:40:39.239Z,12.50
2019-03-31T18:45:33.829Z,13.30
2019-03-31T18:50:28.416Z,12.63
2019-03-31T18:55:40.844Z,16.07
2019-03-31T19:00:37.077Z,17.47
2019-03-31T19:05:49.093Z,14.53
2019-03-31T19:10:58.428Z,16.33
2019-03-31T19:16:10.752Z,19.20
2019-03-31T19:21:11.455Z,12.53
2019-03-31T19:26:06.701Z,15.70
2019-03-31T19:31:18.791Z,15.73
2019-03-31T19:36:30.881Z,17.37
2019-03-31T19:41:39.142Z,14.83
2019-03-31T19:46:45.583Z,13.40
2019-03-31T19:51:58.036Z,15.63
2019-03-31T19:57:05.450Z,14.83
2019-03-31T20:02:19.776Z,16.03
2019-03-31T20:07:31.310Z,17.47
2019-03-31T20:12:30.191Z,15.60
2019-03-31T20:17:29.596Z,18.40
2019-03-31T20:22:34.331Z,17.23
2019-03-31T20:27:39.806Z,17.27
2019-03-31T20:32:52.051Z,15.87
2019-03-31T20:37:54.032Z,16.50
2019-03-31T20:42:48.408Z,17.23
2019-03-31T20:47:42.989Z,15.50
2019-03-31T20:52:37.606Z,17.00
2019-03-31T20:57:32.207Z,15.33
2019-03-31T21:02:26.786Z,16.23
2019-03-31T21:07:21.371Z,17.40
2019-03-31T21:12:15.966Z,16.17
2019-03-31T21:17:10.627Z,17.17
2019-03-31T21:22:05.324Z,16.30
2019-03-31T21:26:59.920Z,14.97
2019-03-31T21:31:55.477Z,17.00
2019-03-31T21:36:50.249Z,15.50
2019-03-31T21:41:44.856Z,16.77
2019-03-31T21:46:39.479Z,15.27
2019-03-31T21:51:34.071Z,17.37
2019-03-31T21:56:28.730Z,13.50
2019-03-31T22:01:23.481Z,19.43
2019-03-31T22:06:18.073Z,16.23
2019-03-31T22:11:13.236Z,14.50
2019-03-31T22:16:07.849Z,16.23
2019-03-31T22:21:02.973Z,15.43
2019-03-31T22:25:57.639Z,18.20
2019-03-31T22:30:52.230Z,16.30
2019-03-31T22:36:05.942Z,16.03
2019-03-31T22:41:00.536Z,18.37
2019-03-31T22:45:55.137Z,18.03
2019-03-31T22:50:49.714Z,15.50
2019-03-31T22:55:44.452Z,15.47
2019-03-31T23:00:39.033Z,16.43
2019-03-31T23:05:34.414Z,17.73
2019-03-31T23:10:28.991Z,18.67
2019-03-31T23:15:23.602Z,17.03
2019-03-31T23:20:18.189Z,16.47
2019-03-31T23:25:13.183Z,15.83
2019-03-31T23:30:10.743Z,18.00
2019-03-31T23:35:07.584Z,15.10
2019-03-31T23:40:02.557Z,15.73
2019-03-31T23:44:58.212Z,16.77
2019-03-31T23:49:52.805Z,14.37
2019-03-31T23:54:47.441Z,15.63
2019-03-31T23:59:42.018Z,16.37
